Accueil
METAR-TAF:

METAR-TAF

Aéroports :

Aérodrome d'Arvidsjaur

Arvidsjaur, Suède

latitude: 65-35-25N, longitude: 019-16-55E, altitude: 379 m

Observation

Le bulletin a été fait il y a 29 minutes, à 16:50 UTC
Vent calme
Température -3°C
Humidité 100%
Pression 1015 hPa
Visibilité 10 km ou plus

METAR: ESNX 141650Z AUTO 00000KT 9999 NCD M03/M03 Q1015

Heure: 18:19 (17:19 UTC)

Prévision

Le bulletin a été fait il y a 2 heures et 24 minutes, à 14:55 UTC
Prévision valable du 14 à 15 UTC au 14 à 21 UTC
Vent 2 kt de direction variable
Visibilité 10 km ou plus
pas de nuages en-dessous de 1500 mètres et pas de cumulonimbus.
Probabilité 40%
du 14 à 15 UTC au 14 à 21 UTC
Visibilité: 0400 m
à une hauteur de 200 ft
brouillard givrant

TAF: ESNX 141455Z 1415/1421 VRB02KT CAVOK PROB40 1415/1421 0400 FZFG VV002

Observations et prévisions météorologiques de plus de 4000 aéroports (messages METAR et TAF).

Les stations disponibles sont représentées par des disques jaunes et rouges sur la carte.

Passer la souris dessus pour voir le nom de la station.

Cliquer dessus pour voir les observations et prévisions météorologiques.

Pour changer de carte: cliquez sur les boutons verts avec une croix noire pour zoomer, sur le bouton vert avec un tiret pour effectuer un zoom arrière, ou sur les flèches vertes pour les cartes adjacentes.


METAR-TAF: